Time;durP1;ratioP1;P1;durP2;ratioP2;P2;SDS_P1;SDS_P2;PMS_P1;PMS_P2;Temp;Humidity;BMP_temperature;BMP_pressure;BME280_temperature;BME280_humidity;BME280_pressure;Samples;Min_cycle;Max_cycle;Signal;HPM_P1;HPM_P2
2021/08/13 00:00:26;;;;;;;5.40;4.40;;;;;;;;;;5019807;28;20054;-62
2021/08/13 00:03:13;;;;;;;4.60;4.20;;;;;;;;;;5020996;28;20049;-63
2021/08/13 00:05:58;;;;;;;9.88;8.65;;;;;;;;;;5019798;28;20504;-63
2021/08/13 00:08:44;;;;;;;6.72;6.03;;;;;;;;;;5017886;28;20041;-63
2021/08/13 00:11:30;;;;;;;9.38;8.48;;;;;;;;;;5019723;28;20045;-63
2021/08/13 00:14:16;;;;;;;18.02;15.18;;;;;;;;;;5016615;28;20067;-64
2021/08/13 00:17:01;;;;;;;17.83;15.27;;;;;;;;;;5032188;28;20055;-63
2021/08/13 00:19:46;;;;;;;14.45;12.23;;;;;;;;;;5013269;28;20038;-63
2021/08/13 00:22:32;;;;;;;14.15;12.60;;;;;;;;;;5000125;28;20042;-63
2021/08/13 00:25:17;;;;;;;14.00;12.55;;;;;;;;;;5001008;28;20104;-62
2021/08/13 00:28:02;;;;;;;16.08;5.85;;;;;;;;;;4997251;28;20473;-63
2021/08/13 00:30:47;;;;;;;12.40;10.73;;;;;;;;;;5005051;28;20046;-63
2021/08/13 00:33:33;;;;;;;13.38;11.07;;;;;;;;;;4996169;28;20424;-63
2021/08/13 00:36:19;;;;;;;18.13;14.07;;;;;;;;;;4996003;28;20122;-63
2021/08/13 00:39:04;;;;;;;18.15;15.50;;;;;;;;;;4994619;28;20043;-63
2021/08/13 00:41:52;;;;;;;18.50;15.10;;;;;;;;;;5001916;28;20051;-63
2021/08/13 00:44:38;;;;;;;19.23;17.17;;;;;;;;;;5012370;28;20129;-63
2021/08/13 00:47:24;;;;;;;16.10;13.52;;;;;;;;;;5014754;28;20068;-63
2021/08/13 00:50:32;;;;;;;31.45;11.57;;;;;;;;;;5013445;28;20484;-63
2021/08/13 00:53:18;;;;;;;15.98;13.93;;;;;;;;;;4980484;28;20053;-63
2021/08/13 00:56:06;;;;;;;18.00;14.35;;;;;;;;;;4994014;28;20053;-63
2021/08/13 00:58:59;;;;;;;19.17;15.50;;;;;;;;;;5007018;28;20039;-63
2021/08/13 01:01:50;;;;;;;13.10;10.15;;;;;;;;;;5006810;28;20504;-63
2021/08/13 01:04:36;;;;;;;15.70;14.05;;;;;;;;;;4994295;28;20413;-63
2021/08/13 01:07:24;;;;;;;30.35;19.92;;;;;;;;;;4993700;28;20050;-63
2021/08/13 01:10:10;;;;;;;19.27;16.25;;;;;;;;;;4994073;28;20042;-63
2021/08/13 01:13:05;;;;;;;23.02;18.13;;;;;;;;;;4998274;28;20053;-63
2021/08/13 01:15:54;;;;;;;24.30;18.95;;;;;;;;;;5013146;28;20052;-63
2021/08/13 01:18:40;;;;;;;138.68;12.75;;;;;;;;;;5013430;28;20524;-63
2021/08/13 01:21:30;;;;;;;142.25;11.70;;;;;;;;;;5023191;28;20053;-63
2021/08/13 01:24:19;;;;;;;7.88;7.15;;;;;;;;;;4980146;28;20408;-63
2021/08/13 01:27:06;;;;;;;16.02;10.02;;;;;;;;;;4979856;28;20074;-63
2021/08/13 01:29:55;;;;;;;119.32;10.73;;;;;;;;;;4993360;28;20083;-63
2021/08/13 01:32:42;;;;;;;14.20;11.30;;;;;;;;;;4989314;28;20147;-63
2021/08/13 01:35:30;;;;;;;24.27;18.75;;;;;;;;;;5026649;28;20045;-63
2021/08/13 01:38:19;;;;;;;32.33;21.25;;;;;;;;;;5012432;28;20054;-63
2021/08/13 01:41:09;;;;;;;24.52;19.45;;;;;;;;;;5012635;28;20038;-63
2021/08/13 01:43:58;;;;;;;33.92;25.65;;;;;;;;;;5007624;28;20049;-63
2021/08/13 01:46:43;;;;;;;26.75;20.77;;;;;;;;;;4993022;28;20058;-63
2021/08/13 01:49:31;;;;;;;24.30;19.15;;;;;;;;;;4993278;28;20038;-63
2021/08/13 01:52:17;;;;;;;23.05;18.67;;;;;;;;;;4979255;28;20162;-63
2021/08/13 01:55:03;;;;;;;21.83;17.88;;;;;;;;;;4992670;28;20054;-63
2021/08/13 01:57:51;;;;;;;27.13;19.25;;;;;;;;;;4992856;28;20045;-63
2021/08/13 02:00:37;;;;;;;29.15;21.58;;;;;;;;;;4992770;28;20464;-63
2021/08/13 02:03:23;;;;;;;25.33;19.90;;;;;;;;;;4992195;28;20125;-63
2021/08/13 02:06:09;;;;;;;25.23;19.08;;;;;;;;;;4992735;28;20193;-63
2021/08/13 02:08:55;;;;;;;24.27;19.80;;;;;;;;;;4978460;28;20042;-63
2021/08/13 02:11:50;;;;;;;90.03;18.20;;;;;;;;;;4979137;28;20056;-63
2021/08/13 02:14:38;;;;;;;15.90;13.50;;;;;;;;;;4993014;28;20518;-63
2021/08/13 02:17:23;;;;;;;17.08;13.88;;;;;;;;;;4993373;28;20048;-63
2021/08/13 02:20:10;;;;;;;19.58;16.65;;;;;;;;;;4978829;28;20078;-63
2021/08/13 02:22:57;;;;;;;20.80;18.13;;;;;;;;;;4978869;28;20133;-63
2021/08/13 02:25:43;;;;;;;20.55;16.50;;;;;;;;;;5011587;28;20046;-63
2021/08/13 02:28:31;;;;;;;19.02;14.93;;;;;;;;;;5012274;28;20172;-63
2021/08/13 02:31:18;;;;;;;21.92;7.25;;;;;;;;;;5012020;28;20061;-63
2021/08/13 02:34:06;;;;;;;48.30;8.98;;;;;;;;;;5010254;28;20053;-63
2021/08/13 02:36:57;;;;;;;60.85;10.40;;;;;;;;;;5011663;28;20054;-63
2021/08/13 02:40:04;;;;;;;12.55;10.30;;;;;;;;;;4998222;28;20046;-63
2021/08/13 02:42:52;;;;;;;44.63;15.95;;;;;;;;;;4997870;28;20617;-63
2021/08/13 02:45:38;;;;;;;87.68;17.38;;;;;;;;;;4996469;28;20066;-63
2021/08/13 02:48:23;;;;;;;29.98;6.30;;;;;;;;;;4997807;28;20543;-63
2021/08/13 02:51:10;;;;;;;112.75;8.77;;;;;;;;;;5011262;28;20050;-63
2021/08/13 02:54:02;;;;;;;123.07;10.68;;;;;;;;;;4984935;28;20050;-63
2021/08/13 02:56:47;;;;;;;42.35;7.18;;;;;;;;;;4991960;28;20086;-63
2021/08/13 02:59:33;;;;;;;11.90;4.97;;;;;;;;;;4978239;28;20493;-63
2021/08/13 03:02:21;;;;;;;24.17;7.60;;;;;;;;;;4978437;28;20056;-63
2021/08/13 03:05:07;;;;;;;110.50;7.30;;;;;;;;;;5009960;28;20050;-63
2021/08/13 03:07:52;;;;;;;175.05;10.75;;;;;;;;;;5011476;28;20507;-63
2021/08/13 03:10:38;;;;;;;20.52;5.22;;;;;;;;;;5011512;28;20053;-63
2021/08/13 03:13:24;;;;;;;11.40;5.18;;;;;;;;;;5009897;28;20053;-63
2021/08/13 03:16:10;;;;;;;19.95;4.63;;;;;;;;;;5011303;28;20056;-63
2021/08/13 03:19:00;;;;;;;13.93;4.30;;;;;;;;;;4998017;28;20411;-63
2021/08/13 03:21:47;;;;;;;15.20;5.18;;;;;;;;;;5025202;28;20068;-63
2021/08/13 03:24:37;;;;;;;7.25;6.53;;;;;;;;;;5009766;28;20132;-63
2021/08/13 03:27:25;;;;;;;17.73;12.15;;;;;;;;;;4997868;28;20046;-63
2021/08/13 03:30:10;;;;;;;13.57;11.48;;;;;;;;;;5012202;28;20042;-63
2021/08/13 03:32:56;;;;;;;15.07;12.43;;;;;;;;;;5025016;28;20520;-63
2021/08/13 03:35:44;;;;;;;19.38;15.88;;;;;;;;;;5008533;28;20058;-63
2021/08/13 03:38:30;;;;;;;23.80;18.73;;;;;;;;;;4991519;28;20050;-63
2021/08/13 03:41:18;;;;;;;28.02;20.52;;;;;;;;;;4991334;28;20512;-63
2021/08/13 03:44:06;;;;;;;29.30;20.27;;;;;;;;;;4991378;28;20295;-63
2021/08/13 03:46:54;;;;;;;32.80;22.15;;;;;;;;;;5010947;28;20489;-63
2021/08/13 03:49:40;;;;;;;31.35;21.65;;;;;;;;;;5010924;28;20054;-63
2021/08/13 03:52:26;;;;;;;26.48;20.13;;;;;;;;;;5011141;28;20050;-63
2021/08/13 03:55:15;;;;;;;29.02;20.60;;;;;;;;;;5009632;28;20447;-63
2021/08/13 03:58:00;;;;;;;31.23;21.80;;;;;;;;;;5011761;28;20077;-63
2021/08/13 04:00:46;;;;;;;26.50;18.08;;;;;;;;;;5024909;28;20053;-63
2021/08/13 04:03:32;;;;;;;19.75;15.35;;;;;;;;;;5013488;28;20107;-63
2021/08/13 04:06:17;;;;;;;15.52;12.27;;;;;;;;;;5003589;28;20049;-63
2021/08/13 04:09:03;;;;;;;24.13;18.35;;;;;;;;;;5008341;28;20057;-63
2021/08/13 04:11:48;;;;;;;21.70;17.60;;;;;;;;;;4995002;28;20046;-62
2021/08/13 04:14:33;;;;;;;24.65;19.88;;;;;;;;;;4994598;28;20050;-63
2021/08/13 04:17:21;;;;;;;27.52;20.92;;;;;;;;;;5050418;23;20049;-64
2021/08/13 04:20:06;;;;;;;30.35;23.05;;;;;;;;;;5035105;28;20045;-65
2021/08/13 04:22:55;;;;;;;25.77;20.48;;;;;;;;;;5033875;28;20168;-64
2021/08/13 04:25:40;;;;;;;33.90;25.20;;;;;;;;;;5031722;28;20046;-64
2021/08/13 04:28:26;;;;;;;25.42;19.92;;;;;;;;;;5014170;28;20128;-64
2021/08/13 04:31:12;;;;;;;49.13;29.83;;;;;;;;;;5015056;28;20038;-64
2021/08/13 04:33:58;;;;;;;33.85;20.10;;;;;;;;;;5014969;28;20057;-64
2021/08/13 04:36:46;;;;;;;48.92;17.17;;;;;;;;;;5007454;28;20503;-64
2021/08/13 04:39:31;;;;;;;21.52;11.40;;;;;;;;;;4994450;28;20042;-64
2021/08/13 04:42:17;;;;;;;64.65;10.70;;;;;;;;;;4994202;28;20043;-64
2021/08/13 04:45:02;;;;;;;14.85;9.32;;;;;;;;;;4995116;28;20046;-64
2021/08/13 04:47:48;;;;;;;13.55;10.48;;;;;;;;;;5006407;28;20042;-65
2021/08/13 04:50:36;;;;;;;13.88;10.43;;;;;;;;;;5014932;28;20042;-64
2021/08/13 04:53:25;;;;;;;17.83;13.43;;;;;;;;;;5013225;28;20104;-65
2021/08/13 04:56:12;;;;;;;19.00;16.45;;;;;;;;;;5013569;28;20550;-64
2021/08/13 04:58:58;;;;;;;18.60;16.60;;;;;;;;;;4993795;28;20212;-65
2021/08/13 05:01:58;;;;;;;18.98;16.13;;;;;;;;;;4993886;28;20121;-64
2021/08/13 05:04:43;;;;;;;24.63;18.98;;;;;;;;;;4994606;28;20046;-64
2021/08/13 05:07:32;;;;;;;24.05;21.20;;;;;;;;;;4993472;28;20042;-65
2021/08/13 05:10:18;;;;;;;25.33;22.63;;;;;;;;;;5007735;28;20053;-64
2021/08/13 05:13:03;;;;;;;27.45;22.00;;;;;;;;;;5025376;28;20121;-64
2021/08/13 05:15:50;;;;;;;21.85;19.15;;;;;;;;;;5012995;28;20050;-64
2021/08/13 05:18:36;;;;;;;23.30;19.63;;;;;;;;;;5011219;28;20085;-65
2021/08/13 05:21:23;;;;;;;24.35;20.48;;;;;;;;;;5012977;28;20052;-64
2021/08/13 05:24:08;;;;;;;28.25;23.52;;;;;;;;;;5012970;28;20072;-64
2021/08/13 05:26:53;;;;;;;26.73;22.02;;;;;;;;;;5013095;28;20050;-64
2021/08/13 05:29:39;;;;;;;30.23;24.52;;;;;;;;;;5012483;28;20054;-64
2021/08/13 05:32:26;;;;;;;29.65;23.83;;;;;;;;;;5012877;28;20187;-64
2021/08/13 05:35:12;;;;;;;32.22;25.33;;;;;;;;;;5026614;28;20503;-64
2021/08/13 05:37:59;;;;;;;32.53;25.23;;;;;;;;;;5012663;28;20049;-64
2021/08/13 05:40:45;;;;;;;28.35;24.05;;;;;;;;;;5013842;28;20056;-64
2021/08/13 05:43:31;;;;;;;32.40;26.17;;;;;;;;;;5012469;28;20125;-65
2021/08/13 05:46:17;;;;;;;28.65;23.90;;;;;;;;;;5000574;28;20042;-64
2021/08/13 05:49:02;;;;;;;35.00;26.92;;;;;;;;;;4993064;28;20057;-64
2021/08/13 05:51:48;;;;;;;31.48;26.48;;;;;;;;;;4996087;28;20050;-64
2021/08/13 05:54:34;;;;;;;38.55;29.92;;;;;;;;;;4997660;28;20132;-64
2021/08/13 05:57:19;;;;;;;34.83;29.88;;;;;;;;;;4994505;28;20057;-64
2021/08/13 06:00:05;;;;;;;36.05;30.25;;;;;;;;;;4992799;28;20049;-64
2021/08/13 06:03:03;;;;;;;37.85;29.08;;;;;;;;;;4993710;28;20132;-64
2021/08/13 06:05:52;;;;;;;35.97;26.95;;;;;;;;;;4994368;28;20144;-64
2021/08/13 06:08:39;;;;;;;34.80;29.77;;;;;;;;;;5012237;28;20139;-64
2021/08/13 06:11:24;;;;;;;33.47;29.08;;;;;;;;;;5012102;28;20172;-64
2021/08/13 06:14:13;;;;;;;33.63;27.20;;;;;;;;;;5013076;28;20058;-64
2021/08/13 06:16:59;;;;;;;37.45;28.17;;;;;;;;;;5002553;28;20042;-65
2021/08/13 06:19:45;;;;;;;32.60;27.25;;;;;;;;;;4992405;28;20046;-64
2021/08/13 06:22:31;;;;;;;31.85;26.17;;;;;;;;;;4992340;28;20558;-64
2021/08/13 06:25:16;;;;;;;34.55;26.13;;;;;;;;;;4992529;28;20050;-64
2021/08/13 06:28:01;;;;;;;32.15;27.50;;;;;;;;;;5006836;28;20053;-65
2021/08/13 06:30:47;;;;;;;31.17;25.75;;;;;;;;;;5011897;28;20045;-64
2021/08/13 06:33:33;;;;;;;32.88;26.48;;;;;;;;;;5011741;28;20050;-64
2021/08/13 06:36:18;;;;;;;36.47;27.75;;;;;;;;;;5012727;28;20049;-64
2021/08/13 06:39:04;;;;;;;34.75;28.60;;;;;;;;;;4992447;28;20073;-66
2021/08/13 06:41:49;;;;;;;33.30;26.95;;;;;;;;;;5011683;28;20502;-66
2021/08/13 06:44:45;;;;;;;36.13;27.77;;;;;;;;;;5031481;28;20045;-65
2021/08/13 06:47:31;;;;;;;35.47;27.55;;;;;;;;;;5021192;28;20039;-66
2021/08/13 06:50:18;;;;;;;34.67;27.98;;;;;;;;;;5006474;28;20043;-66
2021/08/13 06:53:08;;;;;;;32.35;25.25;;;;;;;;;;4993885;28;20097;-66
2021/08/13 06:55:54;;;;;;;33.85;26.83;;;;;;;;;;5006499;28;20050;-66
2021/08/13 06:58:39;;;;;;;31.60;26.75;;;;;;;;;;5016185;28;20061;-65
2021/08/13 07:01:24;;;;;;;28.13;24.58;;;;;;;;;;5000121;28;20069;-66
2021/08/13 07:04:09;;;;;;;29.17;24.20;;;;;;;;;;4992150;28;20130;-65
2021/08/13 07:06:54;;;;;;;27.35;22.73;;;;;;;;;;4992380;28;20144;-66
2021/08/13 07:09:46;;;;;;;25.17;21.65;;;;;;;;;;5007894;28;20164;-66
2021/08/13 07:12:31;;;;;;;28.65;22.88;;;;;;;;;;5012437;28;20049;-66
2021/08/13 07:15:17;;;;;;;23.67;20.50;;;;;;;;;;5012502;28;20117;-66
2021/08/13 07:18:06;;;;;;;24.70;20.75;;;;;;;;;;5010640;28;20172;-65
2021/08/13 07:20:51;;;;;;;26.55;20.63;;;;;;;;;;4992696;28;20053;-65
2021/08/13 07:23:36;;;;;;;26.52;21.13;;;;;;;;;;4991290;28;20073;-66
2021/08/13 07:26:23;;;;;;;21.90;19.10;;;;;;;;;;4991348;28;20460;-65
2021/08/13 07:29:08;;;;;;;25.52;20.70;;;;;;;;;;4995644;28;20050;-65
2021/08/13 07:31:55;;;;;;;24.73;20.40;;;;;;;;;;5011075;28;20052;-65
2021/08/13 07:34:41;;;;;;;22.83;19.00;;;;;;;;;;5010843;28;20053;-65
2021/08/13 07:37:26;;;;;;;20.75;17.83;;;;;;;;;;5013896;28;20091;-65
2021/08/13 07:40:12;;;;;;;26.02;19.58;;;;;;;;;;5013877;28;20052;-65
2021/08/13 07:42:57;;;;;;;22.33;19.98;;;;;;;;;;5015892;28;20523;-66
2021/08/13 07:45:42;;;;;;;23.17;18.42;;;;;;;;;;5028841;28;20068;-65
2021/08/13 07:48:28;;;;;;;22.58;17.88;;;;;;;;;;5014837;28;20092;-66
2021/08/13 07:51:14;;;;;;;18.70;16.02;;;;;;;;;;4997734;28;20050;-66
2021/08/13 07:53:59;;;;;;;21.15;17.45;;;;;;;;;;5014466;28;20061;-66
2021/08/13 07:56:45;;;;;;;19.90;17.35;;;;;;;;;;5014741;28;20049;-65
2021/08/13 07:59:33;;;;;;;21.48;17.67;;;;;;;;;;5013351;28;20603;-65
2021/08/13 08:02:19;;;;;;;20.98;17.73;;;;;;;;;;5014698;28;20046;-65
2021/08/13 08:05:04;;;;;;;19.58;16.23;;;;;;;;;;5015269;28;20506;-66
2021/08/13 08:07:49;;;;;;;19.20;16.80;;;;;;;;;;5015454;28;20042;-66
2021/08/13 08:10:34;;;;;;;18.83;15.60;;;;;;;;;;5014040;28;20053;-65
2021/08/13 08:13:20;;;;;;;19.08;15.63;;;;;;;;;;5015027;28;20111;-65
2021/08/13 08:16:05;;;;;;;16.67;14.93;;;;;;;;;;5017259;28;20069;-66
2021/08/13 08:18:50;;;;;;;16.95;14.38;;;;;;;;;;5016562;28;20057;-65
2021/08/13 08:21:36;;;;;;;17.55;14.80;;;;;;;;;;5015483;28;20065;-66
2021/08/13 08:24:22;;;;;;;15.95;14.20;;;;;;;;;;5016292;28;20053;-65
2021/08/13 08:27:08;;;;;;;16.88;13.63;;;;;;;;;;5016578;28;20484;-66
2021/08/13 08:29:53;;;;;;;15.95;13.13;;;;;;;;;;5016964;28;20053;-66
2021/08/13 08:32:39;;;;;;;16.25;13.38;;;;;;;;;;4997285;28;20189;-66
2021/08/13 08:35:24;;;;;;;13.77;12.30;;;;;;;;;;4996625;28;20057;-66
2021/08/13 08:38:09;;;;;;;15.80;12.73;;;;;;;;;;4995799;28;20124;-66
2021/08/13 08:40:55;;;;;;;14.35;11.50;;;;;;;;;;4996051;28;20057;-66
2021/08/13 08:43:40;;;;;;;12.18;9.40;;;;;;;;;;5015843;28;20096;-66
2021/08/13 08:46:25;;;;;;;14.70;9.55;;;;;;;;;;5015566;28;20061;-66
2021/08/13 08:49:11;;;;;;;11.05;9.02;;;;;;;;;;5013123;28;20049;-65
2021/08/13 08:51:56;;;;;;;12.95;10.18;;;;;;;;;;5007657;28;20053;-65
2021/08/13 08:54:43;;;;;;;11.95;10.10;;;;;;;;;;5013253;28;20111;-65
2021/08/13 08:57:29;;;;;;;13.88;9.80;;;;;;;;;;5015117;28;20412;-66
2021/08/13 09:00:15;;;;;;;13.18;11.07;;;;;;;;;;5013133;28;20061;-66
2021/08/13 09:03:00;;;;;;;11.65;9.35;;;;;;;;;;5012815;28;20400;-66
2021/08/13 09:05:45;;;;;;;11.77;10.45;;;;;;;;;;5005781;28;20049;-66
2021/08/13 09:08:31;;;;;;;11.70;10.50;;;;;;;;;;5012436;28;20124;-66
2021/08/13 09:11:16;;;;;;;11.30;8.77;;;;;;;;;;5011764;28;20519;-66
2021/08/13 09:14:01;;;;;;;9.73;8.15;;;;;;;;;;5007455;28;20121;-66
2021/08/13 09:17:02;;;;;;;10.10;8.13;;;;;;;;;;5013430;28;20139;-66
2021/08/13 09:19:48;;;;;;;9.30;7.63;;;;;;;;;;5005103;28;20046;-66
2021/08/13 09:22:33;;;;;;;10.80;7.65;;;;;;;;;;5010547;28;20068;-65
2021/08/13 09:25:18;;;;;;;13.00;8.15;;;;;;;;;;5009960;28;20562;-65
2021/08/13 09:28:33;;;;;;;8.48;7.07;;;;;;;;;;5010224;28;20136;-65
2021/08/13 09:31:21;;;;;;;9.32;7.15;;;;;;;;;;5010269;28;20493;-64
2021/08/13 09:34:07;;;;;;;11.18;6.25;;;;;;;;;;5009559;28;20061;-65
2021/08/13 09:36:52;;;;;;;9.57;5.68;;;;;;;;;;5011873;28;20053;-65
2021/08/13 09:39:37;;;;;;;6.72;5.15;;;;;;;;;;5011397;28;20420;-65
2021/08/13 09:42:23;;;;;;;23.52;6.63;;;;;;;;;;5010487;28;20061;-65
2021/08/13 09:45:10;;;;;;;6.78;5.20;;;;;;;;;;5005311;28;20492;-65
2021/08/13 09:47:55;;;;;;;6.38;5.13;;;;;;;;;;4990759;28;20054;-65
2021/08/13 09:50:41;;;;;;;6.82;5.30;;;;;;;;;;5005453;28;20404;-65
2021/08/13 09:53:27;;;;;;;6.22;4.20;;;;;;;;;;5023724;28;20442;-65
2021/08/13 09:56:25;;;;;;;6.40;4.60;;;;;;;;;;5010211;28;20057;-65
2021/08/13 09:59:17;;;;;;;9.80;5.03;;;;;;;;;;5010761;28;20045;-65
2021/08/13 10:02:23;;;;;;;6.35;3.92;;;;;;;;;;4995052;28;20136;-65
2021/08/13 10:05:17;;;;;;;6.78;3.83;;;;;;;;;;4986499;28;20547;-65
2021/08/13 10:08:04;;;;;;;6.00;3.95;;;;;;;;;;4990537;28;20443;-65
2021/08/13 10:10:50;;;;;;;5.95;3.53;;;;;;;;;;4990325;28;21658;-65
2021/08/13 10:13:41;;;;;;;6.85;3.60;;;;;;;;;;4989360;28;20044;-65
2021/08/13 10:16:28;;;;;;;6.55;3.83;;;;;;;;;;4989957;28;20048;-65
2021/08/13 10:19:18;;;;;;;6.78;4.22;;;;;;;;;;4993249;28;20131;-66
2021/08/13 10:22:04;;;;;;;10.15;4.63;;;;;;;;;;4976779;28;20053;-65
2021/08/13 10:24:50;;;;;;;5.43;4.18;;;;;;;;;;4990108;28;20409;-66
2021/08/13 10:27:36;;;;;;;6.97;3.92;;;;;;;;;;4988829;28;20416;-66
2021/08/13 10:30:26;;;;;;;7.72;4.10;;;;;;;;;;4993355;28;20057;-66
2021/08/13 10:33:14;;;;;;;6.10;4.15;;;;;;;;;;5004552;28;20072;-64
2021/08/13 10:35:59;;;;;;;5.78;3.95;;;;;;;;;;4991175;28;20046;-66
2021/08/13 10:38:50;;;;;;;8.70;4.53;;;;;;;;;;5004256;28;20050;-66
2021/08/13 10:41:38;;;;;;;7.55;4.00;;;;;;;;;;5003760;28;20116;-67
2021/08/13 10:44:25;;;;;;;6.00;3.50;;;;;;;;;;4996572;28;20044;-66
2021/08/13 10:47:13;;;;;;;8.82;4.15;;;;;;;;;;5010983;28;20496;-65
2021/08/13 10:49:58;;;;;;;5.28;3.67;;;;;;;;;;4997575;28;20096;-66
2021/08/13 10:52:44;;;;;;;6.25;3.92;;;;;;;;;;4991080;28;20524;-65
2021/08/13 10:55:38;;;;;;;7.05;3.95;;;;;;;;;;4990228;28;20042;-66
2021/08/13 10:58:40;;;;;;;7.72;4.20;;;;;;;;;;4989260;28;20070;-66
2021/08/13 11:01:31;;;;;;;8.77;4.00;;;;;;;;;;4997178;28;20568;-65
2021/08/13 11:04:19;;;;;;;7.07;4.30;;;;;;;;;;4970931;28;20073;-65
2021/08/13 11:07:06;;;;;;;9.02;4.20;;;;;;;;;;4989809;28;20049;-66
2021/08/13 11:09:51;;;;;;;7.47;4.43;;;;;;;;;;4990662;28;20049;-66
2021/08/13 11:12:37;;;;;;;8.35;4.43;;;;;;;;;;5008443;28;20044;-66
2021/08/13 11:15:35;;;;;;;9.25;4.60;;;;;;;;;;4995133;28;20077;-65
2021/08/13 11:18:27;;;;;;;8.32;4.68;;;;;;;;;;5022966;28;20081;-66
2021/08/13 11:21:14;;;;;;;8.75;4.93;;;;;;;;;;5017295;28;20451;-65
2021/08/13 11:24:01;;;;;;;8.43;4.75;;;;;;;;;;4975552;28;20515;-66
2021/08/13 11:27:09;;;;;;;5.22;3.42;;;;;;;;;;4989614;28;20575;-64
2021/08/13 11:29:55;;;;;;;7.75;4.40;;;;;;;;;;4989483;28;20536;-65
2021/08/13 11:32:54;;;;;;;8.25;3.30;;;;;;;;;;4997671;28;20168;-65
2021/08/13 11:35:39;;;;;;;7.05;3.22;;;;;;;;;;5003089;28;20050;-65
2021/08/13 11:38:55;;;;;;;9.48;3.22;;;;;;;;;;5002384;28;20059;-65
2021/08/13 11:41:40;;;;;;;6.53;3.00;;;;;;;;;;4990386;28;20050;-65
2021/08/13 11:44:28;;;;;;;6.55;2.65;;;;;;;;;;5008616;28;20053;-65
2021/08/13 11:47:16;;;;;;;5.15;2.25;;;;;;;;;;5019179;28;20184;-65
2021/08/13 11:50:08;;;;;;;5.07;2.45;;;;;;;;;;5006296;28;20101;-65
2021/08/13 11:52:53;;;;;;;6.38;2.30;;;;;;;;;;4990570;28;20523;-65
2021/08/13 11:55:41;;;;;;;7.93;2.35;;;;;;;;;;4990126;28;20501;-65
2021/08/13 11:58:27;;;;;;;9.45;2.70;;;;;;;;;;4988986;28;20050;-64
2021/08/13 12:01:14;;;;;;;8.05;2.80;;;;;;;;;;4996867;28;20496;-65
2021/08/13 12:04:16;;;;;;;8.35;2.63;;;;;;;;;;5003629;28;20058;-65
2021/08/13 12:07:08;;;;;;;9.68;2.55;;;;;;;;;;5023003;28;20169;-65
2021/08/13 12:09:57;;;;;;;10.52;3.10;;;;;;;;;;5022622;28;20061;-65
2021/08/13 12:12:43;;;;;;;6.97;2.20;;;;;;;;;;5019126;28;20546;-65
2021/08/13 12:15:29;;;;;;;8.15;2.95;;;;;;;;;;5007670;28;20115;-65
2021/08/13 12:18:16;;;;;;;6.65;2.45;;;;;;;;;;5021879;28;20050;-65
2021/08/13 12:21:05;;;;;;;5.50;2.38;;;;;;;;;;5006392;28;20113;-64
2021/08/13 12:23:55;;;;;;;11.98;2.38;;;;;;;;;;5004690;28;20070;-64
2021/08/13 12:26:40;;;;;;;10.93;3.47;;;;;;;;;;4992633;28;20519;-65
2021/08/13 12:29:26;;;;;;;8.80;3.25;;;;;;;;;;5003734;28;20436;-64
2021/08/13 12:32:12;;;;;;;5.63;2.35;;;;;;;;;;5007605;28;20082;-65
2021/08/13 12:34:57;;;;;;;9.38;3.38;;;;;;;;;;4994447;28;20056;-65
2021/08/13 12:37:44;;;;;;;13.52;3.08;;;;;;;;;;4994400;28;20061;-64
2021/08/13 12:40:30;;;;;;;8.75;2.72;;;;;;;;;;4994324;28;20489;-64
2021/08/13 12:43:15;;;;;;;17.10;4.72;;;;;;;;;;4997713;28;20132;-65
2021/08/13 12:46:00;;;;;;;9.43;2.60;;;;;;;;;;4998271;28;20050;-65
2021/08/13 12:48:47;;;;;;;10.48;3.33;;;;;;;;;;4996496;28;20521;-65
2021/08/13 12:51:33;;;;;;;11.77;3.38;;;;;;;;;;5000708;28;20045;-66
2021/08/13 12:54:30;;;;;;;12.95;3.25;;;;;;;;;;4997317;28;20054;-65
2021/08/13 12:57:18;;;;;;;10.27;3.28;;;;;;;;;;4990698;28;20092;-66
2021/08/13 13:00:07;;;;;;;6.25;2.95;;;;;;;;;;5006587;28;20048;-65
2021/08/13 13:03:10;;;;;;;8.63;2.78;;;;;;;;;;5004770;28;20180;-65
2021/08/13 13:06:06;;;;;;;9.07;3.53;;;;;;;;;;5005853;28;20100;-65
2021/08/13 13:08:52;;;;;;;10.52;3.33;;;;;;;;;;5007900;28;20038;-66
2021/08/13 13:11:38;;;;;;;9.52;2.95;;;;;;;;;;5004044;28;20046;-65
2021/08/13 13:14:33;;;;;;;12.23;3.83;;;;;;;;;;4995806;28;20046;-65
2021/08/13 13:17:19;;;;;;;8.40;3.30;;;;;;;;;;4982781;28;20057;-66
2021/08/13 13:20:23;;;;;;;8.48;3.47;;;;;;;;;;4995585;28;20057;-64
2021/08/13 13:23:12;;;;;;;11.55;3.25;;;;;;;;;;4994239;28;20058;-65
2021/08/13 13:26:11;;;;;;;8.18;3.40;;;;;;;;;;5018114;28;20511;-65
2021/08/13 13:29:10;;;;;;;10.45;3.00;;;;;;;;;;4994120;28;20054;-65
2021/08/13 13:32:20;;;;;;;8.85;3.10;;;;;;;;;;4993267;28;20515;-65
2021/08/13 13:35:16;;;;;;;7.32;2.50;;;;;;;;;;5007263;28;20057;-65
2021/08/13 13:38:05;;;;;;;8.00;3.08;;;;;;;;;;5004220;28;20181;-65
2021/08/13 13:40:51;;;;;;;12.93;3.42;;;;;;;;;;5003543;28;20518;-65
2021/08/13 13:43:37;;;;;;;9.48;2.67;;;;;;;;;;5005024;28;20050;-65
2021/08/13 13:46:22;;;;;;;8.13;3.17;;;;;;;;;;5013761;28;20146;-65
2021/08/13 13:49:09;;;;;;;8.65;3.38;;;;;;;;;;5014561;28;20411;-65
2021/08/13 13:51:54;;;;;;;5.25;3.08;;;;;;;;;;5012962;28;20611;-65
2021/08/13 13:54:39;;;;;;;9.07;3.05;;;;;;;;;;5023065;28;20050;-66
2021/08/13 13:57:25;;;;;;;7.55;2.92;;;;;;;;;;5008969;28;20046;-66
2021/08/13 14:00:11;;;;;;;8.27;3.17;;;;;;;;;;4995159;28;20046;-65
2021/08/13 14:03:06;;;;;;;10.60;2.95;;;;;;;;;;4995059;28;20129;-66
2021/08/13 14:05:51;;;;;;;9.35;2.60;;;;;;;;;;4995434;28;20060;-66
2021/08/13 14:08:36;;;;;;;7.63;2.33;;;;;;;;;;5008656;28;20583;-65
2021/08/13 14:11:23;;;;;;;7.95;2.72;;;;;;;;;;5008616;28;20516;-66
2021/08/13 14:14:08;;;;;;;9.73;2.75;;;;;;;;;;4994360;28;20053;-65
2021/08/13 14:16:54;;;;;;;7.78;2.88;;;;;;;;;;5024432;28;20065;-66
2021/08/13 14:19:39;;;;;;;8.43;2.28;;;;;;;;;;5027979;28;20054;-65
2021/08/13 14:22:25;;;;;;;10.02;3.08;;;;;;;;;;5026226;28;20101;-65
2021/08/13 14:25:12;;;;;;;9.38;2.63;;;;;;;;;;5010240;28;20515;-65
2021/08/13 14:27:57;;;;;;;9.65;2.75;;;;;;;;;;5025755;28;20046;-65
2021/08/13 14:30:44;;;;;;;7.57;2.47;;;;;;;;;;5025809;28;20176;-65
2021/08/13 14:33:29;;;;;;;7.68;2.70;;;;;;;;;;5012606;28;20403;-65
2021/08/13 14:36:15;;;;;;;8.80;2.60;;;;;;;;;;5010726;28;20100;-65
2021/08/13 14:39:01;;;;;;;7.78;2.38;;;;;;;;;;5025648;28;20192;-65
2021/08/13 14:41:47;;;;;;;11.57;3.15;;;;;;;;;;5011609;28;20041;-65
2021/08/13 14:44:32;;;;;;;7.80;2.95;;;;;;;;;;5025173;28;20416;-65
2021/08/13 14:47:18;;;;;;;7.85;2.35;;;;;;;;;;5020700;28;20539;-65
2021/08/13 14:50:03;;;;;;;8.85;1.95;;;;;;;;;;5011509;28;20594;-65
2021/08/13 14:52:50;;;;;;;8.13;2.58;;;;;;;;;;5011642;28;20052;-65
2021/08/13 14:55:40;;;;;;;12.70;2.85;;;;;;;;;;5011345;28;20045;-65
2021/08/13 14:58:26;;;;;;;6.88;2.50;;;;;;;;;;5009443;28;20050;-65
2021/08/13 15:01:11;;;;;;;5.25;2.20;;;;;;;;;;5021072;28;20045;-65
2021/08/13 15:03:56;;;;;;;7.97;2.75;;;;;;;;;;5024811;28;20052;-65
2021/08/13 15:06:41;;;;;;;6.15;2.45;;;;;;;;;;5012197;28;20157;-65
2021/08/13 15:09:27;;;;;;;7.88;2.60;;;;;;;;;;4992509;28;20057;-65
2021/08/13 15:12:12;;;;;;;10.88;2.95;;;;;;;;;;5005463;28;20505;-65
2021/08/13 15:14:57;;;;;;;13.63;2.25;;;;;;;;;;4992273;28;20146;-64
2021/08/13 15:17:42;;;;;;;8.20;2.28;;;;;;;;;;5006262;28;20178;-65
2021/08/13 15:20:28;;;;;;;8.90;2.20;;;;;;;;;;5010049;28;20428;-65
2021/08/13 15:23:14;;;;;;;9.43;2.28;;;;;;;;;;5023346;28;20185;-65
2021/08/13 15:25:59;;;;;;;84.95;5.95;;;;;;;;;;5010121;28;20440;-65
2021/08/13 15:28:44;;;;;;;9.45;2.60;;;;;;;;;;5007594;28;20511;-64
2021/08/13 15:31:30;;;;;;;7.60;2.47;;;;;;;;;;5002521;28;20066;-65
2021/08/13 15:34:15;;;;;;;9.63;2.55;;;;;;;;;;4997781;28;20521;-65
2021/08/13 15:37:00;;;;;;;6.88;2.22;;;;;;;;;;5009670;28;20076;-65
2021/08/13 15:39:46;;;;;;;10.23;2.58;;;;;;;;;;5007976;28;20041;-65
2021/08/13 15:42:33;;;;;;;7.75;2.55;;;;;;;;;;5009099;28;20056;-65
2021/08/13 15:45:20;;;;;;;9.70;2.35;;;;;;;;;;5002071;28;20115;-65
2021/08/13 15:48:05;;;;;;;11.30;2.63;;;;;;;;;;5002598;28;20077;-65
2021/08/13 15:50:51;;;;;;;8.20;2.42;;;;;;;;;;4999133;28;20076;-65
2021/08/13 15:53:36;;;;;;;10.32;2.40;;;;;;;;;;4999230;28;20404;-65
2021/08/13 15:56:21;;;;;;;8.23;2.42;;;;;;;;;;4989506;28;20053;-65
2021/08/13 15:59:07;;;;;;;9.85;2.13;;;;;;;;;;4994711;28;20054;-65
2021/08/13 16:01:53;;;;;;;9.77;2.08;;;;;;;;;;5000158;28;20096;-65
2021/08/13 16:04:38;;;;;;;8.70;2.20;;;;;;;;;;4994473;28;20034;-65
2021/08/13 16:07:24;;;;;;;8.20;2.15;;;;;;;;;;4996366;28;20049;-64
2021/08/13 16:10:10;;;;;;;7.50;2.20;;;;;;;;;;4999034;28;20039;-65
2021/08/13 16:12:55;;;;;;;7.07;2.42;;;;;;;;;;5008438;28;20081;-65
2021/08/13 16:15:42;;;;;;;9.50;2.17;;;;;;;;;;5011581;28;20046;-65
2021/08/13 16:18:30;;;;;;;8.32;2.40;;;;;;;;;;5016268;28;20049;-65
2021/08/13 16:21:15;;;;;;;6.43;2.20;;;;;;;;;;5016019;28;20052;-65
2021/08/13 16:24:00;;;;;;;9.90;2.78;;;;;;;;;;5011552;28;20408;-64
2021/08/13 16:26:46;;;;;;;6.95;2.08;;;;;;;;;;4996020;28;20042;-65